createdAt,value
2023-04-18T00:00:13.874Z,0.00
2023-04-18T00:01:13.523Z,0.00
2023-04-18T00:02:13.754Z,0.00
2023-04-18T00:03:14.385Z,0.00
2023-04-18T00:04:15.676Z,0.00
2023-04-18T00:05:15.753Z,0.00
2023-04-18T00:06:16.727Z,0.00
2023-04-18T00:07:16.282Z,0.00
2023-04-18T00:07:24.963Z,0.00
2023-04-18T00:08:25.493Z,0.00
2023-04-18T00:09:26.362Z,0.00
2023-04-18T00:10:26.967Z,0.00
2023-04-18T00:11:27.484Z,0.00
2023-04-18T00:12:28.073Z,0.00
2023-04-18T00:13:28.704Z,0.00
2023-04-18T00:14:29.404Z,0.00
2023-04-18T00:15:30.024Z,0.00
2023-04-18T00:16:30.934Z,0.00
2023-04-18T00:17:31.460Z,0.00
2023-04-18T00:18:32.054Z,0.00
2023-04-18T00:18:40.756Z,0.00
2023-04-18T00:19:41.401Z,0.00
2023-04-18T00:20:42.045Z,0.00
2023-04-18T00:21:42.993Z,0.00
2023-04-18T00:22:44.611Z,0.00
2023-04-18T00:23:45.137Z,0.00
2023-04-18T00:24:44.822Z,0.00
2023-04-18T00:25:45.635Z,0.00
2023-04-18T00:26:46.668Z,0.00
2023-04-18T00:27:47.314Z,0.00
2023-04-18T00:28:48.003Z,0.00
2023-04-18T00:29:48.604Z,0.00
2023-04-18T00:29:57.364Z,0.00
2023-04-18T00:30:57.905Z,0.00
2023-04-18T00:31:58.679Z,0.00
2023-04-18T00:33:00.253Z,0.00
2023-04-18T00:33:59.785Z,0.00
2023-04-18T00:35:00.453Z,0.00
2023-04-18T00:36:00.967Z,0.00
2023-04-18T00:37:01.566Z,0.00
2023-04-18T00:38:02.423Z,0.00
2023-04-18T00:39:02.961Z,0.00
2023-04-18T00:40:03.523Z,0.00
2023-04-18T00:40:12.205Z,0.00
2023-04-18T00:41:13.059Z,0.00
2023-04-18T00:42:13.630Z,0.00
2023-04-18T00:43:14.188Z,0.00
2023-04-18T00:44:15.101Z,0.00
2023-04-18T00:45:15.380Z,0.00
2023-04-18T00:46:16.488Z,0.00
2023-04-18T00:47:16.035Z,0.00
2023-04-18T00:48:16.619Z,0.00
2023-04-18T00:49:17.205Z,0.00
2023-04-18T00:50:17.912Z,0.00
2023-04-18T00:51:18.442Z,0.00
2023-04-18T00:52:19.028Z,0.00
2023-04-18T00:53:19.542Z,0.00
2023-04-18T00:53:33.120Z,0.00
2023-04-18T00:54:33.688Z,0.00
2023-04-18T00:55:34.386Z,0.00
2023-04-18T00:56:35.065Z,0.00
2023-04-18T00:57:35.660Z,0.00
2023-04-18T00:58:36.208Z,0.00
2023-04-18T00:59:36.727Z,0.00
2023-04-18T01:00:36.756Z,0.00
2023-04-18T01:01:37.499Z,0.00
2023-04-18T01:02:38.059Z,0.00
2023-04-18T01:03:38.816Z,0.00
2023-04-18T01:04:39.406Z,0.00
2023-04-18T01:05:39.453Z,0.00
2023-04-18T01:06:40.049Z,0.00
2023-04-18T01:06:49.122Z,0.00
2023-04-18T01:07:49.663Z,0.00
2023-04-18T01:08:50.268Z,0.00
2023-04-18T01:09:50.798Z,0.00
2023-04-18T01:10:51.824Z,0.00
2023-04-18T01:11:51.461Z,0.00
2023-04-18T01:12:52.082Z,0.00
2023-04-18T01:13:52.671Z,0.00
2023-04-18T01:14:53.188Z,0.00
2023-04-18T01:15:53.908Z,0.00
2023-04-18T01:16:54.497Z,0.00
2023-04-18T01:17:55.138Z,0.00
2023-04-18T01:18:07.145Z,0.00
2023-04-18T01:19:08.069Z,0.00
2023-04-18T01:20:08.703Z,0.00
2023-04-18T01:21:09.322Z,0.00
2023-04-18T01:22:10.166Z,0.00
2023-04-18T01:23:10.234Z,0.00
2023-04-18T01:24:10.977Z,0.00
2023-04-18T01:25:11.504Z,0.00
2023-04-18T01:26:12.127Z,0.00
2023-04-18T01:27:12.738Z,0.00
2023-04-18T01:28:13.342Z,0.00
2023-04-18T01:29:13.888Z,0.00
2023-04-18T01:29:22.554Z,0.00
2023-04-18T01:30:23.165Z,0.00
2023-04-18T01:31:24.023Z,0.00
2023-04-18T01:32:24.923Z,0.00
2023-04-18T01:33:25.492Z,0.00
2023-04-18T01:34:26.043Z,0.00
2023-04-18T01:35:26.208Z,0.00
2023-04-18T01:36:26.409Z,0.00
2023-04-18T01:37:26.978Z,0.00
2023-04-18T01:38:27.364Z,0.00
2023-04-18T01:39:27.795Z,0.00
2023-04-18T01:40:28.474Z,0.00
2023-04-18T01:40:37.254Z,0.00
2023-04-18T01:41:37.753Z,0.00
2023-04-18T01:42:38.428Z,0.00
2023-04-18T01:43:39.021Z,0.00
2023-04-18T01:44:39.545Z,0.00
2023-04-18T01:45:40.134Z,0.00
2023-04-18T01:46:40.574Z,0.00
2023-04-18T01:47:41.060Z,0.00
2023-04-18T01:48:41.683Z,0.00
2023-04-18T01:49:42.618Z,0.00
2023-04-18T01:50:43.203Z,0.00
2023-04-18T01:51:43.883Z,0.00
2023-04-18T01:52:44.408Z,0.00
2023-04-18T01:52:53.532Z,0.00
2023-04-18T01:53:53.596Z,0.00
2023-04-18T01:54:54.180Z,0.00
2023-04-18T01:55:54.739Z,0.00
2023-04-18T01:56:54.850Z,0.00
2023-04-18T01:57:55.119Z,0.00
2023-04-18T01:58:55.772Z,0.00
2023-04-18T01:59:56.354Z,0.00
2023-04-18T02:00:58.299Z,0.00
2023-04-18T02:01:57.309Z,0.00
2023-04-18T02:02:57.987Z,0.00
2023-04-18T02:03:58.007Z,0.00
2023-04-18T02:04:06.599Z,0.00
2023-04-18T02:05:06.650Z,0.00
2023-04-18T02:06:07.592Z,0.00
2023-04-18T02:07:08.254Z,0.00
2023-04-18T02:08:08.964Z,0.00
2023-04-18T02:09:09.787Z,0.00
2023-04-18T02:10:10.443Z,0.00
2023-04-18T02:11:11.113Z,0.00
2023-04-18T02:12:11.856Z,0.00
2023-04-18T02:13:12.739Z,0.00
2023-04-18T02:14:13.434Z,0.00
2023-04-18T02:15:14.006Z,0.00
2023-04-18T02:16:14.615Z,0.00
2023-04-18T02:16:23.367Z,0.00
2023-04-18T02:17:23.472Z,0.00
2023-04-18T02:18:23.923Z,0.00
2023-04-18T02:19:24.914Z,0.00
2023-04-18T02:20:25.031Z,0.00
2023-04-18T02:21:25.890Z,0.00
2023-04-18T02:22:25.949Z,0.00
2023-04-18T02:23:26.487Z,0.00
2023-04-18T02:24:27.140Z,0.00
2023-04-18T02:25:28.767Z,0.00
2023-04-18T02:26:28.549Z,0.00
2023-04-18T02:27:29.055Z,0.00
2023-04-18T02:27:37.743Z,0.00
2023-04-18T02:28:38.688Z,0.00
2023-04-18T02:29:39.269Z,0.00
2023-04-18T02:30:39.918Z,0.00
2023-04-18T02:31:40.505Z,0.00
2023-04-18T02:32:41.184Z,0.00
2023-04-18T02:33:41.703Z,0.00
2023-04-18T02:34:42.404Z,0.00
2023-04-18T02:35:43.013Z,0.00
2023-04-18T02:36:44.657Z,0.00
2023-04-18T02:37:44.424Z,0.00
2023-04-18T02:37:53.079Z,0.00
2023-04-18T02:38:53.368Z,0.00
2023-04-18T02:39:53.993Z,0.00
2023-04-18T02:40:54.587Z,0.00
2023-04-18T02:41:55.151Z,0.00
2023-04-18T02:42:55.950Z,0.00
2023-04-18T02:43:56.465Z,0.00
2023-04-18T02:44:57.078Z,0.00
2023-04-18T02:45:57.620Z,0.00
2023-04-18T02:46:58.146Z,0.00
2023-04-18T02:47:58.881Z,0.00
2023-04-18T02:48:59.484Z,0.00
2023-04-18T02:49:10.612Z,0.00
2023-04-18T02:50:11.280Z,0.00
2023-04-18T02:51:11.836Z,0.00
2023-04-18T02:52:13.554Z,0.00
2023-04-18T02:53:13.406Z,0.00
2023-04-18T02:54:14.037Z,0.00
2023-04-18T02:55:14.752Z,0.00
2023-04-18T02:56:15.251Z,0.00
2023-04-18T02:57:15.931Z,0.00
2023-04-18T02:58:16.528Z,0.00
2023-04-18T02:59:17.125Z,0.00
2023-04-18T02:59:27.315Z,0.00
2023-04-18T03:00:28.144Z,0.00
2023-04-18T03:01:28.773Z,0.00
2023-04-18T03:02:29.575Z,0.00
2023-04-18T03:03:30.030Z,0.00
2023-04-18T03:04:30.571Z,0.00
2023-04-18T03:05:30.829Z,0.00
2023-04-18T03:06:32.435Z,0.00
2023-04-18T03:07:32.020Z,0.00
2023-04-18T03:08:32.866Z,0.00
2023-04-18T03:09:33.085Z,0.00
2023-04-18T03:10:33.747Z,0.00
2023-04-18T03:10:42.411Z,0.00
2023-04-18T03:11:42.927Z,0.00
2023-04-18T03:12:43.547Z,0.00
2023-04-18T03:13:44.428Z,0.00
2023-04-18T03:14:44.512Z,0.00
2023-04-18T03:15:45.235Z,0.00
2023-04-18T03:16:45.768Z,0.00
2023-04-18T03:17:46.430Z,0.00
2023-04-18T03:18:46.508Z,0.00
2023-04-18T03:19:47.023Z,0.00
2023-04-18T03:20:47.724Z,0.00
2023-04-18T03:20:56.437Z,0.00
2023-04-18T03:21:57.033Z,0.00
2023-04-18T03:22:57.621Z,0.00
2023-04-18T03:23:58.274Z,0.00
2023-04-18T03:24:58.810Z,0.00
2023-04-18T03:25:59.429Z,0.00
2023-04-18T03:26:59.543Z,0.00
2023-04-18T03:28:00.160Z,0.00
2023-04-18T03:29:01.376Z,0.00
2023-04-18T03:30:01.030Z,0.00
2023-04-18T03:31:01.926Z,0.00
2023-04-18T03:32:02.332Z,0.00
2023-04-18T03:33:03.085Z,0.00
2023-04-18T03:33:11.705Z,0.00
2023-04-18T03:34:11.844Z,0.05
2023-04-18T03:35:12.408Z,0.05
2023-04-18T03:36:13.163Z,0.05
2023-04-18T03:37:13.177Z,0.05
2023-04-18T03:38:13.887Z,0.05
2023-04-18T03:39:13.938Z,0.05
2023-04-18T03:40:13.949Z,0.05
2023-04-18T03:41:14.120Z,0.05
2023-04-18T03:42:14.886Z,0.09
2023-04-18T03:43:15.568Z,0.09
2023-04-18T03:44:16.386Z,0.09
2023-04-18T03:44:25.357Z,0.09
2023-04-18T03:45:25.850Z,0.14
2023-04-18T03:46:26.655Z,0.14
2023-04-18T03:47:26.595Z,0.14
2023-04-18T03:48:26.944Z,0.18
2023-04-18T03:49:27.373Z,0.22
2023-04-18T03:50:28.013Z,0.22
2023-04-18T03:51:28.764Z,0.31
2023-04-18T03:52:29.889Z,0.41
2023-04-18T03:53:30.259Z,0.50
2023-04-18T03:54:31.053Z,0.54
2023-04-18T03:55:31.671Z,0.63
2023-04-18T03:56:32.026Z,0.76
2023-04-18T03:56:43.538Z,0.76
2023-04-18T03:57:43.566Z,0.90
2023-04-18T03:58:44.136Z,1.08
2023-04-18T03:59:46.062Z,1.30
2023-04-18T04:00:44.640Z,1.58
2023-04-18T04:01:44.771Z,1.89
2023-04-18T04:02:45.507Z,2.25
2023-04-18T04:03:46.358Z,2.70
2023-04-18T04:04:47.150Z,3.19
2023-04-18T04:05:47.143Z,3.87
2023-04-18T04:06:47.379Z,4.59
2023-04-18T04:07:47.369Z,5.58
2023-04-18T04:08:48.227Z,6.57
2023-04-18T04:09:48.778Z,7.78
2023-04-18T04:10:49.435Z,9.27
2023-04-18T04:11:03.216Z,9.72
2023-04-18T04:12:03.932Z,11.43
2023-04-18T04:13:04.285Z,13.59
2023-04-18T04:14:05.113Z,16.02
2023-04-18T04:15:05.223Z,18.54
2023-04-18T04:16:05.604Z,21.06
2023-04-18T04:17:05.872Z,23.40
2023-04-18T04:18:06.547Z,26.28
2023-04-18T04:19:06.780Z,30.78
2023-04-18T04:20:07.385Z,35.64
2023-04-18T04:21:07.851Z,41.04
2023-04-18T04:22:07.918Z,47.52
2023-04-18T04:23:07.981Z,55.08
2023-04-18T04:23:17.181Z,56.52
2023-04-18T04:24:18.019Z,66.24
2023-04-18T04:25:18.221Z,77.76
2023-04-18T04:26:18.910Z,90.00
2023-04-18T04:27:19.135Z,102.96
2023-04-18T04:28:19.160Z,116.64
2023-04-18T04:29:20.024Z,131.04
2023-04-18T04:30:20.926Z,146.16
2023-04-18T04:31:21.707Z,163.44
2023-04-18T04:32:21.695Z,180.00
2023-04-18T04:33:22.249Z,197.28
2023-04-18T04:34:22.912Z,217.44
2023-04-18T04:35:23.870Z,237.60
2023-04-18T04:36:24.546Z,260.64
2023-04-18T04:37:25.150Z,283.68
2023-04-18T04:38:25.591Z,311.04
2023-04-18T04:39:26.318Z,338.40
2023-04-18T04:39:35.510Z,342.72
2023-04-18T04:40:36.820Z,371.52
2023-04-18T04:41:36.500Z,400.32
2023-04-18T04:42:37.322Z,432.00
2023-04-18T04:43:38.022Z,466.56
2023-04-18T04:44:38.733Z,504.00
2023-04-18T04:45:39.733Z,547.20
2023-04-18T04:46:39.805Z,590.40
2023-04-18T04:47:40.048Z,630.72
2023-04-18T04:48:40.332Z,671.04
2023-04-18T04:49:40.914Z,714.24
2023-04-18T04:50:41.444Z,766.08
2023-04-18T04:51:41.472Z,817.92
2023-04-18T04:51:50.578Z,823.68
2023-04-18T04:52:51.202Z,869.76
2023-04-18T04:53:51.785Z,915.84
2023-04-18T04:54:52.183Z,950.40
2023-04-18T04:55:52.627Z,979.20
2023-04-18T04:56:53.198Z,1002.24
2023-04-18T04:57:53.724Z,1215.36
2023-04-18T04:58:55.353Z,1255.68
2023-04-18T04:59:55.043Z,1284.48
2023-04-18T05:00:56.040Z,1307.52
2023-04-18T05:01:56.663Z,1330.56
2023-04-18T05:02:57.527Z,1365.12
2023-04-18T05:03:57.720Z,1405.44
2023-04-18T05:04:07.430Z,1411.20
2023-04-18T05:05:07.794Z,1445.76
2023-04-18T05:06:07.906Z,1474.56
2023-04-18T05:07:08.681Z,1509.12
2023-04-18T05:08:09.210Z,1543.68
2023-04-18T05:09:10.049Z,1589.76
2023-04-18T05:10:10.625Z,1647.36
2023-04-18T05:11:11.261Z,1704.96
2023-04-18T05:12:11.309Z,1762.56
2023-04-18T05:13:11.924Z,1797.12
2023-04-18T05:14:13.121Z,1820.16
2023-04-18T05:15:13.195Z,1843.20
2023-04-18T05:15:21.869Z,1843.20
2023-04-18T05:16:21.904Z,1912.32
2023-04-18T05:17:22.572Z,1981.44
2023-04-18T05:18:23.507Z,2039.04
2023-04-18T05:19:24.330Z,2062.08
2023-04-18T05:20:24.978Z,2050.56
2023-04-18T05:21:25.659Z,2062.08
2023-04-18T05:22:25.754Z,2085.12
2023-04-18T05:23:26.290Z,2073.60
2023-04-18T05:24:27.186Z,2108.16
2023-04-18T05:25:27.210Z,2154.24
2023-04-18T05:26:27.965Z,2200.32
2023-04-18T05:27:28.551Z,2246.40
2023-04-18T05:27:38.708Z,2257.92
2023-04-18T05:28:39.367Z,2304.00
2023-04-18T05:29:39.919Z,2350.08
2023-04-18T05:30:40.695Z,2361.60
2023-04-18T05:31:41.456Z,2419.20
2023-04-18T05:32:42.240Z,2580.48
2023-04-18T05:33:42.561Z,3525.12
2023-04-18T05:34:43.332Z,4631.04
2023-04-18T05:35:43.871Z,5552.64
2023-04-18T05:36:44.436Z,5875.20
2023-04-18T05:37:45.037Z,5506.56
2023-04-18T05:38:45.662Z,4792.32
2023-04-18T05:38:58.952Z,4700.16
2023-04-18T05:40:00.861Z,3916.80
2023-04-18T05:41:00.228Z,3870.72
2023-04-18T05:42:00.226Z,3916.80
2023-04-18T05:43:00.262Z,3847.68
2023-04-18T05:44:05.371Z,3456.00
2023-04-18T05:45:01.864Z,3893.76
2023-04-18T05:46:02.452Z,5391.36
2023-04-18T05:47:03.188Z,5760.00
2023-04-18T05:48:03.791Z,5990.40
2023-04-18T05:49:04.257Z,6128.64
2023-04-18T05:50:04.629Z,6220.80
2023-04-18T05:50:13.786Z,6220.80
2023-04-18T05:51:14.495Z,6312.96
2023-04-18T05:52:15.062Z,6405.12
2023-04-18T05:53:15.682Z,6635.52
2023-04-18T05:54:16.159Z,7464.96
2023-04-18T05:55:15.984Z,8432.64
2023-04-18T05:56:16.141Z,8985.60
2023-04-18T05:57:16.769Z,9262.08
2023-04-18T05:58:17.174Z,9446.40
2023-04-18T05:59:17.585Z,9676.80
2023-04-18T06:00:17.949Z,9768.96
2023-04-18T06:01:18.349Z,9722.88
2023-04-18T06:02:19.603Z,9676.80
2023-04-18T06:03:19.611Z,9676.80
2023-04-18T06:03:30.675Z,9768.96
2023-04-18T06:04:31.042Z,9768.96
2023-04-18T06:05:31.362Z,9907.20
2023-04-18T06:06:31.863Z,9907.20
2023-04-18T06:07:32.527Z,9722.88
2023-04-18T06:08:32.600Z,9953.28
2023-04-18T06:09:32.680Z,10137.60
2023-04-18T06:10:33.527Z,10321.92
2023-04-18T06:11:33.630Z,10183.68
2023-04-18T06:12:35.659Z,9999.36
2023-04-18T06:13:35.591Z,10137.60
2023-04-18T06:14:36.408Z,10368.00
2023-04-18T06:15:37.744Z,10736.64
2023-04-18T06:16:37.226Z,10460.16
2023-04-18T06:17:38.029Z,10874.88
2023-04-18T06:17:54.583Z,10782.72
2023-04-18T06:18:54.724Z,10229.76
2023-04-18T06:19:55.398Z,6865.92
2023-04-18T06:20:55.458Z,8663.04
2023-04-18T06:21:55.766Z,8386.56
2023-04-18T06:22:56.382Z,7326.72
2023-04-18T06:23:56.731Z,8939.52
2023-04-18T06:24:57.013Z,7879.68
2023-04-18T06:25:57.140Z,4561.92
2023-04-18T12:55:46.912Z,15206.40
2023-04-18T12:56:47.154Z,13824.00
2023-04-18T12:57:48.152Z,13363.20
2023-04-18T12:58:48.429Z,15114.24
2023-04-18T12:59:48.945Z,11335.68
2023-04-18T13:00:49.819Z,11796.48
2023-04-18T13:01:50.725Z,10275.84
2023-04-18T13:02:52.677Z,9999.36
2023-04-18T13:03:11.784Z,10137.60
2023-04-18T13:04:12.898Z,11796.48
2023-04-18T13:05:11.049Z,18616.32
2023-04-18T13:06:12.464Z,11612.16
2023-04-18T13:07:11.486Z,11289.60
2023-04-18T13:08:17.721Z,11704.32
2023-04-18T13:09:12.731Z,11059.20
2023-04-18T13:10:14.348Z,11658.24
2023-04-18T13:11:13.836Z,12441.60
2023-04-18T13:12:15.663Z,13916.16
2023-04-18T13:13:16.199Z,16588.80
2023-04-18T13:14:15.831Z,20367.36
2023-04-18T13:15:15.843Z,33546.24
2023-04-18T13:16:16.437Z,24514.56
2023-04-18T13:16:28.053Z,28385.28
2023-04-18T13:17:28.596Z,24883.20
2023-04-18T13:18:29.173Z,46632.96
2023-04-18T13:19:29.638Z,49029.12
2023-04-18T13:20:30.972Z,30044.16
2023-04-18T13:21:30.105Z,19814.40
2023-04-18T13:22:35.618Z,20090.88
2023-04-18T13:23:31.126Z,20920.32
2023-04-18T13:24:31.241Z,20551.68
2023-04-18T13:25:31.853Z,17418.24
2023-04-18T13:26:32.358Z,15575.04
2023-04-18T13:27:33.232Z,15022.08
2023-04-18T13:28:33.885Z,15851.52
2023-04-18T13:29:35.165Z,19077.12
2023-04-18T13:29:44.852Z,17879.04
2023-04-18T13:30:44.755Z,31518.72
2023-04-18T13:31:45.750Z,42209.28
2023-04-18T13:32:46.362Z,28569.60
2023-04-18T13:33:47.087Z,15575.04
2023-04-18T13:34:48.019Z,31150.08
2023-04-18T13:35:48.869Z,15114.24
2023-04-18T13:36:49.360Z,15851.52
2023-04-18T13:37:49.918Z,16957.44
2023-04-18T13:38:50.062Z,17879.04
2023-04-18T13:39:51.506Z,32624.64
2023-04-18T13:41:01.013Z,17971.20
2023-04-18T13:41:52.418Z,17510.40
2023-04-18T13:42:01.458Z,17049.60
2023-04-18T13:43:01.831Z,37232.64
2023-04-18T13:44:05.138Z,19630.08
2023-04-18T13:45:02.852Z,44789.76
2023-04-18T13:46:03.053Z,34099.20
2023-04-18T13:47:03.868Z,15482.88
2023-04-18T13:48:04.560Z,35758.08
2023-04-18T13:49:05.030Z,16128.00
2023-04-18T13:50:05.473Z,11980.80
2023-04-18T13:51:06.268Z,8709.12
2023-04-18T13:52:07.245Z,8478.72
2023-04-18T13:53:08.110Z,9216.00
2023-04-18T13:54:08.606Z,10137.60
2023-04-18T13:54:17.305Z,10321.92
2023-04-18T13:55:17.515Z,11750.40
2023-04-18T13:56:17.715Z,13363.20
2023-04-18T13:57:18.095Z,17786.88
2023-04-18T13:58:18.939Z,35205.12
2023-04-18T13:59:27.823Z,32440.32
2023-04-18T14:00:19.668Z,27648.00
2023-04-18T14:01:20.524Z,20183.04
2023-04-18T14:02:21.048Z,17510.40
2023-04-18T14:03:22.893Z,31150.08
2023-04-18T14:04:22.101Z,16773.12
2023-04-18T14:05:08.653Z,17049.60
2023-04-18T14:06:06.014Z,16496.64
2023-04-18T14:07:06.825Z,16957.44
2023-04-18T14:08:07.003Z,15114.24
2023-04-18T14:09:06.992Z,14192.64
2023-04-18T14:10:10.779Z,14376.96
2023-04-18T14:11:08.550Z,16220.16
2023-04-18T14:12:09.468Z,16496.64
2023-04-18T14:13:09.903Z,16220.16
2023-04-18T14:14:10.467Z,15022.08
2023-04-18T14:15:12.341Z,14376.96
2023-04-18T14:16:12.226Z,14100.48
2023-04-18T14:17:12.233Z,12994.56
2023-04-18T14:17:29.195Z,12349.44
2023-04-18T14:18:30.246Z,10506.24
2023-04-18T14:19:30.680Z,9308.16
2023-04-18T14:20:31.046Z,8663.04
2023-04-18T14:21:31.504Z,8709.12
2023-04-18T14:22:32.020Z,9630.72
2023-04-18T14:23:32.778Z,10183.68
2023-04-18T14:24:34.257Z,10598.40
2023-04-18T14:25:33.619Z,10091.52
2023-04-18T14:26:34.099Z,9676.80
2023-04-18T14:27:34.869Z,9584.64
2023-04-18T14:28:35.419Z,15206.40
2023-04-18T14:29:36.305Z,9400.32
2023-04-18T14:29:52.532Z,9907.20
2023-04-18T14:30:53.412Z,12257.28
2023-04-18T14:31:54.811Z,9768.96
2023-04-18T14:32:54.698Z,11335.68
2023-04-18T14:33:55.177Z,13824.00
2023-04-18T14:34:55.891Z,47554.56
2023-04-18T14:35:57.639Z,27648.00
2023-04-18T14:36:57.110Z,23500.80
2023-04-18T14:37:57.967Z,44236.80
2023-04-18T14:38:07.685Z,44236.80
2023-04-18T14:39:07.985Z,43130.88
2023-04-18T14:40:08.417Z,35573.76
2023-04-18T14:41:08.886Z,29306.88
2023-04-18T14:42:09.341Z,18984.96
2023-04-18T14:43:10.207Z,42577.92
2023-04-18T14:44:10.409Z,41287.68
2023-04-18T14:45:10.863Z,39260.16
2023-04-18T14:46:11.260Z,37785.60
2023-04-18T14:47:14.788Z,9216.00
2023-04-18T14:48:13.352Z,31518.72
2023-04-18T14:49:12.924Z,29491.20
2023-04-18T14:50:12.862Z,16035.84
2023-04-18T14:51:12.933Z,13271.04
2023-04-18T14:51:23.838Z,13639.68
2023-04-18T14:52:23.106Z,32993.28
2023-04-18T14:53:23.636Z,13271.04
2023-04-18T14:54:24.174Z,15482.88
2023-04-18T14:55:25.567Z,15851.52
2023-04-18T14:56:24.644Z,40181.76
2023-04-18T14:57:25.481Z,21381.12
2023-04-18T14:58:24.903Z,10736.64
2023-04-18T14:59:25.830Z,9492.48
2023-04-18T15:00:26.709Z,8893.44
2023-04-18T15:01:27.593Z,9676.80
2023-04-18T15:01:48.733Z,9999.36
2023-04-18T15:02:49.843Z,13731.84
2023-04-18T15:03:51.773Z,12625.92
2023-04-18T15:04:50.852Z,12441.60
2023-04-18T15:05:51.452Z,14561.28
2023-04-18T15:06:51.896Z,31703.04
2023-04-18T15:07:52.247Z,13363.20
2023-04-18T15:08:52.825Z,37232.64
2023-04-18T15:09:53.740Z,21473.28
2023-04-18T15:10:54.467Z,11013.12
2023-04-18T15:11:55.377Z,10644.48
2023-04-18T15:12:55.973Z,35942.40
2023-04-18T15:13:05.454Z,14653.44
2023-04-18T15:14:05.818Z,34467.84
2023-04-18T15:15:06.433Z,10690.56
2023-04-18T15:16:06.833Z,10460.16
2023-04-18T15:17:07.400Z,10644.48
2023-04-18T15:18:08.496Z,10644.48
2023-04-18T15:19:08.995Z,32993.28
2023-04-18T15:20:14.283Z,10920.96
2023-04-18T15:21:09.805Z,11520.00
2023-04-18T15:22:10.325Z,12349.44
2023-04-18T15:23:10.686Z,11704.32
2023-04-18T15:24:11.296Z,29122.56
2023-04-18T15:25:11.830Z,13639.68
2023-04-18T15:25:22.080Z,25804.80
2023-04-18T15:26:22.127Z,32071.68
2023-04-18T15:27:22.976Z,32993.28
2023-04-18T15:28:23.077Z,32071.68
2023-04-18T15:29:23.761Z,33177.60
2023-04-18T15:30:24.378Z,33730.56
2023-04-18T15:31:24.865Z,33361.92
2023-04-18T15:32:25.542Z,32624.64
2023-04-18T15:33:25.982Z,29491.20
2023-04-18T15:34:26.429Z,33361.92
2023-04-18T15:35:26.655Z,32440.32
2023-04-18T15:36:27.205Z,30597.12
2023-04-18T15:37:28.043Z,29675.52
2023-04-18T15:38:28.458Z,26726.40
2023-04-18T15:39:29.335Z,27095.04
2023-04-18T15:39:47.750Z,12994.56
2023-04-18T15:40:48.244Z,10460.16
2023-04-18T15:41:49.086Z,10967.04
2023-04-18T15:42:50.598Z,28200.96
2023-04-18T15:43:50.247Z,27832.32
2023-04-18T15:44:50.504Z,16865.28
2023-04-18T15:45:50.983Z,17326.08
2023-04-18T15:46:52.866Z,22855.68
2023-04-18T15:47:52.786Z,26173.44
2023-04-18T15:48:53.219Z,28200.96
2023-04-18T15:49:54.030Z,28385.28
2023-04-18T15:50:02.299Z,26726.40
2023-04-18T15:51:02.471Z,14284.80
2023-04-18T15:52:03.312Z,19077.12
2023-04-18T15:53:03.786Z,26542.08
2023-04-18T15:54:04.315Z,25620.48
2023-04-18T15:55:04.896Z,21473.28
2023-04-18T15:56:05.561Z,16496.64
2023-04-18T15:57:05.658Z,20090.88
2023-04-18T15:58:06.167Z,7188.48
2023-04-18T15:59:07.019Z,6819.84
2023-04-18T16:00:07.633Z,7050.24
2023-04-18T16:01:09.214Z,8294.40
2023-04-18T16:02:09.337Z,7004.16
2023-04-18T16:02:19.663Z,6865.92
2023-04-18T16:03:19.836Z,7695.36
2023-04-18T16:04:20.065Z,7557.12
2023-04-18T16:05:20.693Z,7649.28
2023-04-18T16:06:21.324Z,8294.40
2023-04-18T16:07:21.891Z,8524.80
2023-04-18T16:08:22.149Z,7695.36
2023-04-18T16:09:22.508Z,22210.56
2023-04-18T16:10:26.281Z,16680.96
2023-04-18T16:11:24.243Z,16588.80
2023-04-18T16:12:25.107Z,17326.08
2023-04-18T16:17:02.905Z,20275.20
2023-04-18T16:18:04.316Z,19906.56
2023-04-18T16:19:04.132Z,19445.76
2023-04-18T16:20:04.294Z,6773.76
2023-04-18T16:21:07.728Z,18984.96
2023-04-18T16:22:05.733Z,19722.24
2023-04-18T16:23:06.497Z,18432.00
2023-04-18T16:24:07.266Z,9446.40
2023-04-18T16:25:07.897Z,19077.12
2023-04-18T16:26:09.142Z,18339.84
2023-04-18T16:27:08.473Z,17326.08
2023-04-18T16:28:09.334Z,6958.08
2023-04-18T16:28:54.926Z,7464.96
2023-04-18T16:29:55.011Z,7464.96
2023-04-18T16:30:55.926Z,6635.52
2023-04-18T16:31:56.478Z,13178.88
2023-04-18T16:32:57.559Z,14929.92
2023-04-18T16:33:57.964Z,13086.72
2023-04-18T16:34:58.201Z,15482.88
2023-04-18T16:35:58.757Z,14192.64
2023-04-18T16:36:59.578Z,14745.60
2023-04-18T16:38:00.316Z,14100.48
2023-04-18T16:39:01.040Z,4815.36
2023-04-18T16:39:15.699Z,4815.36
2023-04-18T16:40:16.558Z,5160.96
2023-04-18T16:41:17.380Z,6405.12
2023-04-18T16:42:18.285Z,7280.64
2023-04-18T16:43:19.177Z,14008.32
2023-04-18T16:44:20.025Z,14837.76
2023-04-18T16:45:20.774Z,13731.84
2023-04-18T16:46:21.220Z,13731.84
2023-04-18T16:47:21.313Z,12994.56
2023-04-18T16:48:22.926Z,11427.84
2023-04-18T16:49:22.710Z,12349.44
2023-04-18T16:50:23.594Z,11888.64
2023-04-18T16:51:24.408Z,11289.60
2023-04-18T16:52:25.257Z,11796.48
2023-04-18T16:52:42.247Z,12072.96
2023-04-18T16:53:43.118Z,11796.48
2023-04-18T16:54:43.964Z,12165.12
2023-04-18T16:55:44.171Z,12441.60
2023-04-18T16:56:44.801Z,12072.96
2023-04-18T16:57:45.151Z,11520.00
2023-04-18T16:58:45.199Z,10828.80
2023-04-18T16:59:45.905Z,10552.32
2023-04-18T17:00:46.153Z,10506.24
2023-04-18T17:01:47.058Z,10045.44
2023-04-18T17:01:56.701Z,10045.44
2023-04-18T17:02:56.838Z,9768.96
2023-04-18T17:03:57.087Z,9123.84
2023-04-18T17:04:57.576Z,8340.48
2023-04-18T17:05:57.604Z,7188.48
2023-04-18T17:06:58.326Z,2903.04
2023-04-18T17:07:59.195Z,2753.28
2023-04-18T17:09:01.069Z,2856.96
2023-04-18T17:09:59.740Z,3110.40
2023-04-18T17:11:00.584Z,3363.84
2023-04-18T17:12:01.174Z,3386.88
2023-04-18T17:13:01.921Z,3386.88
2023-04-18T17:14:02.129Z,3133.44
2023-04-18T17:14:25.415Z,3041.28
2023-04-18T17:15:25.265Z,3018.24
2023-04-18T17:16:26.124Z,2949.12
2023-04-18T17:17:26.922Z,2949.12
2023-04-18T17:18:27.767Z,3018.24
2023-04-18T17:19:28.430Z,2753.28
2023-04-18T17:20:28.257Z,2373.12
2023-04-18T17:21:29.103Z,2142.72
2023-04-18T17:22:29.765Z,2154.24
2023-04-18T17:23:32.649Z,2165.76
2023-04-18T17:24:31.326Z,2165.76
2023-04-18T17:25:31.512Z,2177.28
2023-04-18T17:25:43.510Z,2177.28
2023-04-18T17:26:42.914Z,2131.20
2023-04-18T17:27:43.790Z,2108.16
2023-04-18T17:28:44.563Z,2050.56
2023-04-18T17:29:45.533Z,2027.52
2023-04-18T17:30:46.398Z,2039.04
2023-04-18T17:31:48.327Z,2050.56
2023-04-18T17:32:49.366Z,2027.52
2023-04-18T17:33:48.749Z,1981.44
2023-04-18T17:34:49.861Z,1946.88
2023-04-18T17:35:50.485Z,1900.80
2023-04-18T17:36:51.299Z,1866.24
2023-04-18T17:37:51.629Z,1820.16
2023-04-18T17:38:02.889Z,1808.64
2023-04-18T17:39:02.796Z,1774.08
2023-04-18T17:40:03.768Z,1751.04
2023-04-18T17:41:05.721Z,1681.92
2023-04-18T17:42:04.717Z,1647.36
2023-04-18T17:43:05.580Z,1601.28
2023-04-18T17:44:06.231Z,1543.68
2023-04-18T17:45:06.467Z,1497.60
2023-04-18T17:46:06.971Z,1463.04
2023-04-18T17:47:08.370Z,1416.96
2023-04-18T17:48:08.531Z,1365.12
2023-04-18T17:49:08.249Z,1330.56
2023-04-18T17:50:09.424Z,1301.76
2023-04-18T17:51:08.847Z,1267.20
2023-04-18T17:52:09.477Z,1238.40
2023-04-18T17:53:10.106Z,1198.08
2023-04-18T17:54:13.294Z,1163.52
2023-04-18T17:55:11.582Z,1117.44
2023-04-18T17:56:11.902Z,1088.64
2023-04-18T17:56:23.804Z,1082.88
2023-04-18T17:57:24.950Z,1042.56
2023-04-18T17:58:24.740Z,1008.00
2023-04-18T17:59:25.406Z,973.44
2023-04-18T18:00:25.680Z,944.64
2023-04-18T18:01:26.382Z,915.84
2023-04-18T18:02:26.563Z,898.56
2023-04-18T18:03:26.950Z,875.52
2023-04-18T18:04:27.628Z,835.20
2023-04-18T18:05:28.290Z,699.84
2023-04-18T18:06:29.327Z,662.40
2023-04-18T18:07:29.229Z,627.84
2023-04-18T18:08:30.096Z,593.28
2023-04-18T18:09:33.238Z,561.60
2023-04-18T18:10:31.371Z,532.80
2023-04-18T18:11:32.296Z,506.88
2023-04-18T18:11:42.818Z,504.00
2023-04-18T18:12:43.685Z,478.08
2023-04-18T18:13:45.548Z,452.16
2023-04-18T18:14:44.570Z,432.00
2023-04-18T18:15:46.807Z,408.96
2023-04-18T18:16:45.697Z,391.68
2023-04-18T18:17:47.335Z,367.20
2023-04-18T18:18:46.338Z,336.96